createdAt,value
2019-01-04T00:00:32.481Z,40.47
2019-01-04T00:03:01.952Z,33.27
2019-01-04T00:05:31.319Z,29.13
2019-01-04T00:08:00.690Z,27.70
2019-01-04T00:10:30.070Z,25.93
2019-01-04T00:12:59.546Z,26.73
2019-01-04T00:15:28.934Z,22.33
2019-01-04T00:17:58.368Z,22.03
2019-01-04T00:20:27.762Z,20.77
2019-01-04T00:22:57.128Z,19.80
2019-01-04T00:25:26.501Z,16.93
2019-01-04T00:27:55.884Z,18.90
2019-01-04T00:30:25.254Z,22.03
2019-01-04T00:32:54.836Z,22.80
2019-01-04T00:35:24.207Z,24.77
2019-01-04T00:37:53.643Z,20.47
2019-01-04T00:40:23.007Z,25.57
2019-01-04T00:42:52.447Z,22.83
2019-01-04T00:45:21.873Z,20.97
2019-01-04T00:47:51.276Z,20.20
2019-01-04T00:50:20.732Z,21.20
2019-01-04T00:52:50.156Z,17.67
2019-01-04T00:55:25.653Z,16.77
2019-01-04T00:57:58.127Z,25.73
2019-01-04T01:00:43.915Z,21.77
2019-01-04T01:03:32.382Z,16.10
2019-01-04T01:06:33.088Z,19.33
2019-01-04T01:09:38.189Z,20.50
2019-01-04T01:12:19.282Z,19.10
2019-01-04T01:15:13.735Z,19.80
2019-01-04T01:18:04.090Z,21.47
2019-01-04T01:20:51.514Z,22.77
2019-01-04T01:23:26.627Z,21.07
2019-01-04T01:25:59.058Z,20.73
2019-01-04T01:29:00.021Z,18.07
2019-01-04T01:31:54.319Z,17.37
2019-01-04T01:34:44.575Z,16.30
2019-01-04T01:37:23.126Z,15.97
2019-01-04T01:40:04.390Z,20.43
2019-01-04T01:42:36.823Z,21.57
2019-01-04T01:45:43.747Z,17.83
2019-01-04T01:48:13.851Z,20.83
2019-01-04T01:50:52.054Z,19.33
2019-01-04T01:53:21.319Z,20.57
2019-01-04T01:55:50.737Z,18.57
2019-01-04T01:58:20.088Z,23.33
2019-01-04T02:00:49.472Z,23.60
2019-01-04T02:03:18.840Z,20.97
2019-01-04T02:05:48.280Z,20.10
2019-01-04T02:08:17.650Z,22.03
2019-01-04T02:10:47.071Z,23.03
2019-01-04T02:13:16.445Z,21.50
2019-01-04T02:15:45.825Z,20.47
2019-01-04T02:18:15.207Z,23.03
2019-01-04T02:20:44.641Z,20.87
2019-01-04T02:23:14.038Z,24.33
2019-01-04T02:25:43.414Z,22.37
2019-01-04T02:28:12.754Z,21.60
2019-01-04T02:30:42.207Z,22.50
2019-01-04T02:33:11.568Z,20.27
2019-01-04T02:35:44.196Z,21.00
2019-01-04T02:38:11.991Z,25.40
2019-01-04T02:40:41.384Z,20.07
2019-01-04T02:43:10.759Z,23.93
2019-01-04T02:45:40.126Z,24.00
2019-01-04T02:48:09.586Z,23.23
2019-01-04T02:50:38.873Z,22.97
2019-01-04T02:53:08.202Z,22.20
2019-01-04T02:55:37.488Z,21.37
2019-01-04T02:58:06.822Z,28.07
2019-01-04T03:00:36.243Z,23.83
2019-01-04T03:03:05.527Z,24.00
2019-01-04T03:05:34.826Z,25.20
2019-01-04T03:08:04.275Z,23.27
2019-01-04T03:10:33.655Z,23.93
2019-01-04T03:13:04.219Z,25.23
2019-01-04T03:15:33.591Z,31.77
2019-01-04T03:18:02.974Z,25.70
2019-01-04T03:20:32.275Z,28.03
2019-01-04T03:23:01.670Z,23.57
2019-01-04T03:25:31.034Z,23.93
2019-01-04T03:28:00.406Z,25.63
2019-01-04T03:30:29.773Z,29.53
2019-01-04T03:32:59.166Z,29.57
2019-01-04T03:35:28.524Z,29.07
2019-01-04T03:37:57.881Z,33.13
2019-01-04T03:40:27.251Z,26.40
2019-01-04T03:42:56.610Z,30.83
2019-01-04T03:45:26.019Z,29.17
2019-01-04T03:47:55.383Z,31.20
2019-01-04T03:50:24.854Z,31.67
2019-01-04T03:52:54.218Z,28.97
2019-01-04T03:55:23.589Z,30.67
2019-01-04T03:57:52.967Z,29.03
2019-01-04T04:00:22.312Z,31.67
2019-01-04T04:02:51.686Z,27.23
2019-01-04T04:05:21.049Z,29.87
2019-01-04T04:07:50.536Z,28.37
2019-01-04T04:10:19.908Z,29.73
2019-01-04T04:12:49.271Z,29.27
2019-01-04T04:15:18.690Z,29.93
2019-01-04T04:17:50.743Z,30.33
2019-01-04T04:20:20.110Z,32.43
2019-01-04T04:22:49.483Z,27.30
2019-01-04T04:25:18.848Z,28.73
2019-01-04T04:27:48.229Z,31.00
2019-01-04T04:30:17.612Z,28.07
2019-01-04T04:32:46.984Z,30.07
2019-01-04T04:35:16.362Z,29.67
2019-01-04T04:37:45.759Z,29.90
2019-01-04T04:40:15.193Z,31.07
2019-01-04T04:42:44.655Z,29.83
2019-01-04T04:45:14.011Z,25.23
2019-01-04T04:47:43.407Z,30.23
2019-01-04T04:50:12.772Z,27.97
2019-01-04T04:52:42.151Z,27.37
2019-01-04T04:55:11.510Z,32.20
2019-01-04T04:57:40.885Z,32.00
2019-01-04T05:00:10.357Z,30.10
2019-01-04T05:02:39.725Z,29.97
2019-01-04T05:05:09.155Z,33.50
2019-01-04T05:07:38.530Z,32.77
2019-01-04T05:10:08.063Z,34.37
2019-01-04T05:12:37.424Z,32.13
2019-01-04T05:15:06.828Z,34.33
2019-01-04T05:17:36.273Z,34.00
2019-01-04T05:20:05.738Z,31.57
2019-01-04T05:22:35.116Z,31.97
2019-01-04T05:25:04.649Z,31.43
2019-01-04T05:27:35.641Z,34.80
2019-01-04T05:30:05.856Z,34.43
2019-01-04T05:32:35.259Z,35.70
2019-01-04T05:35:04.918Z,31.97
2019-01-04T05:37:34.286Z,37.67
2019-01-04T05:40:04.503Z,34.93
2019-01-04T05:42:33.866Z,34.30
2019-01-04T05:45:03.528Z,32.73
2019-01-04T05:47:32.882Z,31.63
2019-01-04T05:50:02.268Z,33.50
2019-01-04T05:52:31.558Z,37.27
2019-01-04T05:55:00.941Z,37.83
2019-01-04T05:57:30.358Z,33.10
2019-01-04T05:59:59.774Z,34.07
2019-01-04T06:02:29.155Z,38.10
2019-01-04T06:04:58.548Z,37.33
2019-01-04T06:07:27.939Z,32.30
2019-01-04T06:09:57.279Z,36.87
2019-01-04T06:12:26.650Z,33.87
2019-01-04T06:14:56.024Z,35.03
2019-01-04T06:17:25.719Z,36.13
2019-01-04T06:19:55.148Z,36.73
2019-01-04T06:22:24.552Z,35.00
2019-01-04T06:24:53.967Z,32.10
2019-01-04T06:27:23.326Z,31.90
2019-01-04T06:29:52.697Z,35.23
2019-01-04T06:32:22.059Z,34.70
2019-01-04T06:34:51.424Z,32.93
2019-01-04T06:37:20.799Z,31.50
2019-01-04T06:39:50.239Z,33.93
2019-01-04T06:42:19.649Z,35.13
2019-01-04T06:44:49.004Z,34.40
2019-01-04T06:47:18.389Z,39.10
2019-01-04T06:49:47.760Z,33.17
2019-01-04T06:52:17.219Z,32.60
2019-01-04T06:55:17.944Z,37.33
2019-01-04T06:57:47.331Z,35.93
2019-01-04T07:00:16.689Z,33.10
2019-01-04T07:02:46.066Z,32.67
2019-01-04T07:05:15.461Z,32.60
2019-01-04T07:07:44.831Z,34.73
2019-01-04T07:10:14.229Z,31.03
2019-01-04T07:12:43.609Z,34.13
2019-01-04T07:15:13.013Z,37.40
2019-01-04T07:17:42.771Z,35.33
2019-01-04T07:20:12.175Z,31.50
2019-01-04T07:22:41.568Z,40.27
2019-01-04T07:25:10.944Z,32.03
2019-01-04T07:27:40.334Z,36.50
2019-01-04T07:30:10.825Z,35.60
2019-01-04T07:32:40.378Z,30.53
2019-01-04T07:35:09.727Z,35.77
2019-01-04T07:37:39.122Z,36.13
2019-01-04T07:40:09.626Z,33.03
2019-01-04T07:42:39.022Z,34.07
2019-01-04T07:45:09.410Z,33.07
2019-01-04T07:47:38.786Z,35.43
2019-01-04T07:50:08.386Z,32.50
2019-01-04T07:52:37.751Z,31.37
2019-01-04T07:55:08.267Z,35.30
2019-01-04T07:57:37.708Z,31.00
2019-01-04T08:00:10.082Z,31.80
2019-01-04T08:02:43.278Z,34.20
2019-01-04T08:05:17.381Z,35.67
2019-01-04T08:07:46.742Z,33.47
2019-01-04T08:10:17.638Z,32.07
2019-01-04T08:12:47.361Z,28.40
2019-01-04T08:15:17.205Z,36.00
2019-01-04T08:17:47.968Z,25.73
2019-01-04T08:20:17.421Z,29.33
2019-01-04T08:22:46.790Z,29.60
2019-01-04T08:25:16.142Z,30.13
2019-01-04T08:27:45.523Z,29.27
2019-01-04T08:30:15.068Z,27.17
2019-01-04T08:32:44.440Z,26.37
2019-01-04T08:35:13.800Z,25.53
2019-01-04T08:37:43.183Z,23.63
2019-01-04T08:40:12.630Z,24.37
2019-01-04T08:42:42.010Z,27.10
2019-01-04T08:45:11.596Z,31.93
2019-01-04T08:47:40.967Z,31.50
2019-01-04T08:50:10.480Z,29.07
2019-01-04T08:52:39.855Z,29.63
2019-01-04T08:55:09.596Z,28.03
2019-01-04T08:57:38.999Z,26.00
2019-01-04T09:00:11.476Z,37.83
2019-01-04T09:02:40.867Z,25.93
2019-01-04T09:05:10.255Z,27.93
2019-01-04T09:07:39.707Z,27.13
2019-01-04T09:10:09.211Z,27.93
2019-01-04T09:12:38.585Z,25.47
2019-01-04T09:15:08.584Z,25.23
2019-01-04T09:17:38.111Z,27.13
2019-01-04T09:20:08.801Z,27.00
2019-01-04T09:22:38.346Z,25.30
2019-01-04T09:25:08.654Z,27.27
2019-01-04T09:27:38.895Z,26.50
2019-01-04T09:30:10.674Z,25.23
2019-01-04T09:32:40.052Z,23.80
2019-01-04T09:35:09.510Z,28.33
2019-01-04T09:37:38.942Z,26.43
2019-01-04T09:40:09.241Z,25.53
2019-01-04T09:42:38.614Z,24.10
2019-01-04T09:45:08.931Z,26.93
2019-01-04T09:47:38.404Z,27.60
2019-01-04T09:50:08.366Z,28.57
2019-01-04T09:52:37.725Z,21.10
2019-01-04T09:55:07.328Z,23.50
2019-01-04T09:57:36.715Z,20.17
2019-01-04T10:00:09.017Z,21.13
2019-01-04T10:02:38.368Z,20.43
2019-01-04T10:05:08.398Z,19.47
2019-01-04T10:07:38.035Z,21.50
2019-01-04T10:10:09.228Z,21.77
2019-01-04T10:12:39.884Z,18.30
2019-01-04T10:15:14.381Z,23.63
2019-01-04T10:17:43.806Z,21.00
2019-01-04T10:20:13.331Z,21.33
2019-01-04T10:22:42.714Z,20.17
2019-01-04T10:25:12.079Z,19.60
2019-01-04T10:27:41.606Z,19.03
2019-01-04T10:30:14.066Z,21.87
2019-01-04T10:32:43.459Z,20.47
2019-01-04T10:35:12.912Z,19.83
2019-01-04T10:37:42.650Z,16.10
2019-01-04T10:40:12.348Z,15.53
2019-01-04T10:42:41.842Z,11.40
2019-01-04T10:45:11.193Z,11.07
2019-01-04T10:47:40.589Z,13.33
2019-01-04T10:50:11.577Z,11.57
2019-01-04T10:52:41.088Z,14.53
2019-01-04T10:55:10.533Z,10.37
2019-01-04T10:57:39.897Z,14.10
2019-01-04T11:00:11.064Z,12.67
2019-01-04T11:02:40.445Z,11.03
2019-01-04T11:05:09.762Z,7.77
2019-01-04T11:07:39.129Z,8.67
2019-01-04T11:10:13.198Z,9.93
2019-01-04T11:12:42.588Z,10.10
2019-01-04T11:15:11.943Z,9.53
2019-01-04T11:17:41.285Z,9.07
2019-01-04T11:20:34.419Z,10.67
2019-01-04T11:23:06.952Z,8.93
2019-01-04T11:26:00.199Z,10.10
2019-01-04T11:28:53.645Z,10.67
2019-01-04T11:31:56.114Z,7.43
2019-01-04T11:34:50.580Z,7.37
2019-01-04T11:37:53.068Z,8.47
2019-01-04T11:40:37.077Z,7.03
2019-01-04T11:43:12.384Z,7.67
2019-01-04T11:45:59.739Z,8.43
2019-01-04T11:48:37.948Z,10.93
2019-01-04T11:51:13.415Z,5.00
2019-01-04T11:53:42.853Z,6.73
2019-01-04T11:56:12.234Z,6.90
2019-01-04T11:58:41.588Z,7.07
2019-01-04T12:01:10.964Z,4.73
2019-01-04T12:03:40.375Z,4.27
2019-01-04T12:06:09.797Z,5.47
2019-01-04T12:08:39.215Z,4.80
2019-01-04T12:11:08.610Z,7.03
2019-01-04T12:13:37.972Z,6.23
2019-01-04T12:16:07.248Z,4.50
2019-01-04T12:18:36.577Z,3.97
2019-01-04T12:21:05.956Z,9.87
2019-01-04T12:23:35.310Z,6.83
2019-01-04T12:26:04.703Z,6.07
2019-01-04T12:28:34.149Z,9.07
2019-01-04T12:31:03.514Z,6.13
2019-01-04T12:33:33.005Z,9.30
2019-01-04T12:36:02.365Z,6.77
2019-01-04T12:38:31.734Z,6.53
2019-01-04T12:41:01.112Z,5.83
2019-01-04T12:43:30.579Z,6.47
2019-01-04T12:45:59.930Z,8.10
2019-01-04T12:48:29.339Z,11.30
2019-01-04T12:50:58.697Z,6.50
2019-01-04T12:53:28.090Z,6.67
2019-01-04T12:55:57.514Z,3.93
2019-01-04T12:58:26.936Z,8.40
2019-01-04T13:00:56.319Z,7.57
2019-01-04T13:03:25.673Z,4.10
2019-01-04T13:05:55.034Z,6.03
2019-01-04T13:08:24.442Z,5.23
2019-01-04T13:10:53.821Z,4.70
2019-01-04T13:13:23.219Z,7.97
2019-01-04T13:15:52.688Z,7.00
2019-01-04T13:18:22.066Z,4.30
2019-01-04T13:20:51.505Z,9.17
2019-01-04T13:23:20.862Z,6.10
2019-01-04T13:25:50.225Z,6.67
2019-01-04T13:28:19.628Z,5.63
2019-01-04T13:30:48.984Z,5.00
2019-01-04T13:33:18.438Z,5.63
2019-01-04T13:35:47.778Z,5.53
2019-01-04T13:38:20.086Z,5.77
2019-01-04T13:40:48.304Z,6.93
2019-01-04T13:43:17.655Z,4.93
2019-01-04T13:45:47.056Z,5.07
2019-01-04T13:48:16.401Z,5.37
2019-01-04T13:50:45.779Z,5.83
2019-01-04T13:53:15.164Z,5.07
2019-01-04T13:55:44.591Z,5.37
2019-01-04T13:58:14.068Z,8.40
2019-01-04T14:00:43.560Z,7.57
2019-01-04T14:03:14.651Z,13.33
2019-01-04T14:05:44.033Z,8.87
2019-01-04T14:08:13.409Z,8.67
2019-01-04T14:10:42.772Z,6.77
2019-01-04T14:13:13.097Z,6.40
2019-01-04T14:15:42.435Z,6.50
2019-01-04T14:18:11.804Z,5.07
2019-01-04T14:20:41.255Z,5.60
2019-01-04T14:23:11.053Z,6.50
2019-01-04T14:25:40.506Z,8.83
2019-01-04T14:28:09.847Z,6.70
2019-01-04T14:30:39.249Z,8.03
2019-01-04T14:33:08.642Z,10.27
2019-01-04T14:35:38.040Z,11.73
2019-01-04T14:38:07.466Z,12.90
2019-01-04T14:40:36.844Z,10.47
2019-01-04T14:43:06.207Z,8.77
2019-01-04T14:45:35.607Z,12.40
2019-01-04T14:48:05.872Z,9.90
2019-01-04T14:50:35.231Z,12.63
2019-01-04T14:53:04.606Z,11.33
2019-01-04T14:55:33.975Z,10.13
2019-01-04T14:58:03.351Z,10.37
2019-01-04T15:00:32.795Z,9.10
2019-01-04T15:03:03.083Z,10.67
2019-01-04T15:05:32.474Z,10.33
2019-01-04T15:08:01.841Z,9.97
2019-01-04T15:10:31.198Z,10.53
2019-01-04T15:13:00.624Z,9.53
2019-01-04T15:15:30.068Z,9.13
2019-01-04T15:17:59.443Z,8.93
2019-01-04T15:20:28.881Z,12.00
2019-01-04T15:22:58.191Z,10.27
2019-01-04T15:25:28.559Z,9.57
2019-01-04T15:27:58.100Z,8.90
2019-01-04T15:30:27.523Z,8.93
2019-01-04T15:32:56.898Z,8.47
2019-01-04T15:35:26.266Z,10.53
2019-01-04T15:37:55.718Z,9.20
2019-01-04T15:40:25.065Z,8.60
2019-01-04T15:42:54.436Z,10.07
2019-01-04T15:45:23.864Z,10.33
2019-01-04T15:47:53.215Z,9.10
2019-01-04T15:50:22.614Z,8.20
2019-01-04T15:52:51.969Z,9.40
2019-01-04T15:55:21.345Z,11.63
2019-01-04T15:57:50.700Z,11.70
2019-01-04T16:00:20.063Z,11.77
2019-01-04T16:02:49.454Z,11.77
2019-01-04T16:05:18.848Z,9.23
2019-01-04T16:07:48.214Z,13.97
2019-01-04T16:10:17.587Z,14.53
2019-01-04T16:12:47.043Z,23.70
2019-01-04T16:15:16.424Z,14.53
2019-01-04T16:17:46.137Z,18.03
2019-01-04T16:20:15.531Z,13.67
2019-01-04T16:22:44.915Z,13.83
2019-01-04T16:25:14.284Z,16.50
2019-01-04T16:27:43.652Z,14.93
2019-01-04T16:30:13.051Z,16.03
2019-01-04T16:32:42.419Z,17.67
2019-01-04T16:35:11.807Z,19.73
2019-01-04T16:37:41.261Z,21.13
2019-01-04T16:40:10.695Z,21.60
2019-01-04T16:42:40.042Z,21.23
2019-01-04T16:45:09.425Z,20.13
2019-01-04T16:47:39.479Z,34.43
2019-01-04T16:50:08.975Z,21.07
2019-01-04T16:52:38.351Z,19.97
2019-01-04T16:55:08.901Z,23.47
2019-01-04T16:57:38.297Z,24.23
2019-01-04T17:00:10.654Z,22.90
2019-01-04T17:02:40.068Z,19.17
2019-01-04T17:05:10.139Z,30.43
2019-01-04T17:07:39.515Z,19.67
2019-01-04T17:10:08.904Z,19.30
2019-01-04T17:12:38.264Z,17.30
2019-01-04T17:15:07.801Z,19.70
2019-01-04T17:17:37.203Z,18.87
2019-01-04T17:20:06.829Z,21.97
2019-01-04T17:22:36.185Z,16.50
2019-01-04T17:25:07.329Z,15.07
2019-01-04T17:27:36.831Z,21.57
2019-01-04T17:30:08.849Z,16.10
2019-01-04T17:32:38.287Z,14.53
2019-01-04T17:35:07.794Z,15.43
2019-01-04T17:37:37.185Z,12.03
2019-01-04T17:40:08.545Z,12.20
2019-01-04T17:42:37.938Z,12.27
2019-01-04T17:45:08.149Z,12.30
2019-01-04T17:47:37.627Z,11.30
2019-01-04T17:50:07.929Z,13.10
2019-01-04T17:52:37.306Z,13.20
2019-01-04T17:55:06.844Z,11.73
2019-01-04T17:57:36.361Z,16.17
2019-01-04T18:00:08.264Z,11.70
2019-01-04T18:02:37.766Z,18.43
2019-01-04T18:05:22.493Z,19.57
2019-01-04T18:07:42.487Z,14.67
2019-01-04T18:10:12.027Z,10.70
2019-01-04T18:12:44.225Z,15.03
2019-01-04T18:15:13.657Z,12.83
2019-01-04T18:17:43.054Z,13.57
2019-01-04T18:20:13.995Z,12.13
2019-01-04T18:22:43.491Z,12.47
2019-01-04T18:25:12.793Z,13.00
2019-01-04T18:27:42.176Z,14.93
2019-01-04T18:30:11.552Z,11.10
2019-01-04T18:32:40.916Z,67.03
2019-01-04T18:35:12.465Z,15.40
2019-01-04T18:37:41.832Z,10.87
2019-01-04T18:40:11.213Z,13.87
2019-01-04T18:42:40.577Z,13.37
2019-01-04T18:45:10.016Z,13.37
2019-01-04T18:47:39.638Z,12.27
2019-01-04T18:50:11.943Z,14.17
2019-01-04T18:52:41.410Z,12.10
2019-01-04T18:55:10.762Z,15.27
2019-01-04T18:57:40.163Z,14.03
2019-01-04T19:00:10.911Z,13.07
2019-01-04T19:02:40.308Z,14.40
2019-01-04T19:05:09.736Z,15.03
2019-01-04T19:07:39.110Z,14.80
2019-01-04T19:10:09.537Z,18.37
2019-01-04T19:12:38.908Z,17.17
2019-01-04T19:15:09.940Z,13.60
2019-01-04T19:17:39.332Z,11.63
2019-01-04T19:20:08.783Z,14.50
2019-01-04T19:22:38.154Z,17.50
2019-01-04T19:25:07.675Z,11.97
2019-01-04T19:27:37.044Z,13.27
2019-01-04T19:30:07.975Z,16.53
2019-01-04T19:32:37.395Z,15.27
2019-01-04T19:35:06.968Z,14.23
2019-01-04T19:37:36.421Z,12.00
2019-01-04T19:40:06.521Z,13.97
2019-01-04T19:42:35.926Z,13.50
2019-01-04T19:45:06.241Z,13.70
2019-01-04T19:47:36.089Z,35.83
2019-01-04T19:50:17.043Z,13.17
2019-01-04T19:52:46.453Z,15.83
2019-01-04T19:55:15.938Z,15.63
2019-01-04T19:57:45.397Z,12.83
2019-01-04T20:00:14.958Z,14.33
2019-01-04T20:02:44.349Z,13.77
2019-01-04T20:05:21.538Z,13.00
2019-01-04T20:08:11.682Z,12.87
2019-01-04T20:11:03.840Z,14.73
2019-01-04T20:13:43.902Z,13.33
2019-01-04T20:16:26.406Z,13.13
2019-01-04T20:19:15.291Z,16.07
2019-01-04T20:21:48.455Z,18.50
2019-01-04T20:24:21.139Z,15.80
2019-01-04T20:26:52.233Z,14.87
2019-01-04T20:29:32.278Z,14.07
2019-01-04T20:32:05.842Z,15.37
2019-01-04T20:34:42.864Z,13.70
2019-01-04T20:37:28.758Z,13.93
2019-01-04T20:40:16.052Z,12.83
2019-01-04T20:42:55.565Z,13.77
2019-01-04T20:45:32.597Z,15.77
2019-01-04T20:48:09.351Z,16.70
2019-01-04T20:50:40.359Z,15.30
2019-01-04T20:53:11.406Z,17.47
2019-01-04T20:56:00.262Z,17.03
2019-01-04T20:58:43.983Z,12.13
2019-01-04T21:01:32.951Z,13.27
2019-01-04T21:04:21.836Z,16.80
2019-01-04T21:06:52.829Z,17.53
2019-01-04T21:09:23.851Z,17.53
2019-01-04T21:12:06.798Z,18.33
2019-01-04T21:14:46.749Z,14.73
2019-01-04T21:17:26.545Z,18.63
2019-01-04T21:20:13.859Z,15.73
2019-01-04T21:23:02.139Z,18.93
2019-01-04T21:25:48.040Z,22.37
2019-01-04T21:28:21.975Z,19.77
2019-01-04T21:30:55.887Z,19.77
2019-01-04T21:33:26.992Z,15.13
2019-01-04T21:36:14.340Z,15.97
2019-01-04T21:38:51.389Z,15.00
2019-01-04T21:41:25.519Z,15.10
2019-01-04T21:44:05.494Z,15.17
2019-01-04T21:46:54.182Z,14.57
2019-01-04T21:49:31.145Z,13.23
2019-01-04T21:52:17.032Z,16.17
2019-01-04T21:54:48.099Z,12.47
2019-01-04T21:57:37.207Z,13.57
2019-01-04T22:00:24.344Z,12.80
2019-01-04T22:03:07.424Z,12.30
2019-01-04T22:05:53.097Z,17.50
2019-01-04T22:08:39.873Z,18.87
2019-01-04T22:11:16.372Z,13.57
2019-01-04T22:13:50.075Z,11.00
2019-01-04T22:16:37.420Z,11.57
2019-01-04T22:19:14.399Z,9.93
2019-01-04T22:21:51.122Z,10.90
2019-01-04T22:24:22.141Z,10.00
2019-01-04T22:26:53.155Z,9.30
2019-01-04T22:29:27.100Z,10.40
2019-01-04T22:32:03.791Z,10.03
2019-01-04T22:34:50.977Z,11.50
2019-01-04T22:37:37.062Z,13.87
2019-01-04T22:40:24.683Z,13.13
2019-01-04T22:43:11.756Z,13.70
2019-01-04T22:45:58.578Z,13.43
2019-01-04T22:48:45.992Z,14.27
2019-01-04T22:51:33.099Z,13.77
2019-01-04T22:54:20.406Z,15.77
2019-01-04T22:57:03.254Z,13.50
2019-01-04T22:59:50.079Z,17.07
2019-01-04T23:02:26.871Z,14.53
2019-01-04T23:04:57.933Z,13.40
2019-01-04T23:07:34.746Z,14.30
2019-01-04T23:10:22.352Z,13.87
2019-01-04T23:12:59.050Z,12.80
2019-01-04T23:15:46.682Z,13.97
2019-01-04T23:18:23.856Z,14.80
2019-01-04T23:20:57.944Z,17.33
2019-01-04T23:23:34.714Z,17.67
2019-01-04T23:26:11.858Z,17.17
2019-01-04T23:28:45.792Z,17.70
2019-01-04T23:31:28.403Z,16.23
2019-01-04T23:33:59.415Z,16.10
2019-01-04T23:36:33.213Z,17.77
2019-01-04T23:39:10.023Z,18.47
2019-01-04T23:41:57.262Z,17.97
2019-01-04T23:44:37.122Z,15.77
2019-01-04T23:47:20.083Z,19.17
2019-01-04T23:49:57.104Z,19.23
2019-01-04T23:52:36.661Z,20.40
2019-01-04T23:55:13.484Z,19.57
2019-01-04T23:57:56.565Z,19.17
